L'Ametlla del Valles, Spain
Current Conditions -  °F | °C
As of 5:00 PM on Sunday 23 Nov 2014 (Local Time) from LELL Reporting Station
Few Clouds Few Clouds  
Wind Chill: 68°   Ceiling: Unl
Heat Index: 68°   Visibility: 6mi
Dew Point: 59°   Wind: 5mph
Humidity: 73%   Direction: 40°NE
Pressure: 30.03"   Gusts: NA
Location:  41.67°N, 2.27°E
Report Text: LELL 231600Z 04004KT 340V080 9999 FEW035 20/15 Q1017 NOSIG
Loading
Personal Weather Stations






























Interactive Weather Map New forecast layout! Learn more

10-Day Weather Forecast

Advertisements
Track Severe Weather on mobile